createdAt,value
2023-01-22T00:46:03.818Z,101483.38
2023-01-22T00:48:34.855Z,101483.72
2023-01-22T00:51:03.024Z,101482.06
2023-01-22T00:53:29.982Z,101481.28
2023-01-22T00:56:01.963Z,101490.88
2023-01-22T00:58:29.592Z,101487.34
2023-01-22T01:00:56.944Z,101491.63
2023-01-22T01:03:26.998Z,101491.47
2023-01-22T01:05:55.551Z,101493.22
2023-01-22T01:08:23.311Z,101495.72
2023-01-22T01:10:56.784Z,101494.81
2023-01-22T01:13:24.412Z,101488.63
2023-01-22T01:16:10.800Z,101493.03
2023-01-22T01:18:37.635Z,101491.41
2023-01-22T01:21:07.451Z,101490.44
2023-01-22T01:23:36.655Z,101499.19
2023-01-22T01:26:14.379Z,101508.16
2023-01-22T01:28:42.676Z,101492.34
2023-01-22T01:31:15.615Z,101508.09
2023-01-22T01:33:43.184Z,101506.34
2023-01-22T01:36:17.204Z,101508.09
2023-01-22T01:38:44.873Z,101511.69
2023-01-22T01:41:15.564Z,101514.31
2023-01-22T01:43:43.385Z,101516.91
2023-01-22T01:46:30.629Z,101517.75
2023-01-22T01:48:58.048Z,101518.53
2023-01-22T01:51:36.008Z,101524.56
2023-01-22T01:54:05.352Z,101525.53
2023-01-22T01:56:45.060Z,101528.16
2023-01-22T01:59:15.329Z,101529.16
2023-01-22T02:01:43.889Z,101523.88
2023-01-22T02:04:10.921Z,101523.94
2023-01-22T02:06:38.026Z,101527.59
2023-01-22T02:09:04.974Z,101518.03
2023-01-22T02:11:34.303Z,101525.22
2023-01-22T02:14:05.568Z,101528.00
2023-01-22T02:16:33.312Z,101526.38
2023-01-22T02:19:00.251Z,101520.31
2023-01-22T02:21:42.369Z,101528.25
2023-01-22T02:24:15.475Z,101522.31
2023-01-22T02:26:44.486Z,101534.75
2023-01-22T02:29:18.087Z,101526.88
2023-01-22T02:31:45.408Z,101531.34
2023-01-22T02:34:13.299Z,101526.16
2023-01-22T02:36:40.540Z,101521.06
2023-01-22T02:39:07.811Z,101533.38
2023-01-22T02:41:34.949Z,101527.34
2023-01-22T02:44:02.785Z,101521.38
2023-01-22T02:46:30.579Z,101524.97
2023-01-22T02:48:57.553Z,101516.31
2023-01-22T02:51:27.018Z,101525.25
2023-01-22T02:53:54.296Z,101515.72
2023-01-22T02:56:22.038Z,101522.84
2023-01-22T02:58:49.367Z,101519.47
2023-01-22T03:01:20.812Z,101520.44
2023-01-22T03:03:52.279Z,101528.38
2023-01-22T03:06:24.432Z,101531.97
2023-01-22T03:08:57.777Z,101524.22
2023-01-22T03:11:27.487Z,101519.06
2023-01-22T03:14:14.368Z,101530.53
2023-01-22T03:17:01.342Z,101523.59
2023-01-22T03:19:47.060Z,101513.06
2023-01-22T03:22:18.741Z,101524.63
2023-01-22T03:24:51.396Z,101527.19
2023-01-22T03:27:22.788Z,101517.66
2023-01-22T03:29:50.356Z,101523.88
2023-01-22T03:32:19.661Z,101523.88
2023-01-22T03:34:46.604Z,101509.03
2023-01-22T03:37:14.673Z,101512.63
2023-01-22T03:39:44.632Z,101508.34
2023-01-22T03:42:18.630Z,101516.25
2023-01-22T03:44:45.797Z,101511.13
2023-01-22T03:47:13.237Z,101503.28
2023-01-22T03:49:40.350Z,101499.78
2023-01-22T03:52:07.354Z,101498.09
2023-01-22T03:54:34.483Z,101499.81
2023-01-22T03:57:04.060Z,101497.19
2023-01-22T03:59:37.339Z,101497.28
2023-01-22T04:02:04.471Z,101500.78
2023-01-22T04:04:36.948Z,101510.47
2023-01-22T04:07:04.175Z,101501.81
2023-01-22T04:09:31.157Z,101504.50
2023-01-22T04:11:59.033Z,101510.66
2023-01-22T04:14:27.723Z,101515.91
2023-01-22T04:16:58.104Z,101506.28
2023-01-22T04:19:47.924Z,101510.75
2023-01-22T04:22:33.553Z,101508.19
2023-01-22T04:25:01.688Z,101506.44
2023-01-22T04:27:28.601Z,101509.09
2023-01-22T04:29:58.181Z,101503.94
2023-01-22T04:32:25.393Z,101512.72
2023-01-22T04:35:31.358Z,101529.56
2023-01-22T04:37:59.771Z,101533.03
2023-01-22T04:40:26.907Z,101537.44
2023-01-22T04:42:55.297Z,101538.34
2023-01-22T04:45:23.700Z,101548.00
2023-01-22T04:47:50.841Z,101551.53
2023-01-22T04:50:24.547Z,101550.56
2023-01-22T04:52:53.237Z,101537.50
2023-01-22T04:55:21.061Z,101554.13
2023-01-22T04:58:04.186Z,101560.28
2023-01-22T05:00:31.623Z,101563.88
2023-01-22T05:03:02.635Z,101569.19
2023-01-22T05:05:32.256Z,101573.59
2023-01-22T05:08:00.280Z,101580.63
2023-01-22T05:10:28.976Z,101571.91
2023-01-22T05:12:56.417Z,101574.56
2023-01-22T05:15:25.538Z,101579.88
2023-01-22T05:17:56.903Z,101579.09
2023-01-22T05:20:23.843Z,101577.34
2023-01-22T05:22:51.057Z,101583.50
2023-01-22T05:25:22.514Z,101581.84
2023-01-22T05:27:49.425Z,101580.16
2023-01-22T05:30:28.081Z,101588.94
2023-01-22T05:32:59.908Z,101582.06
2023-01-22T05:35:28.339Z,101591.66
2023-01-22T05:37:57.074Z,101594.28
2023-01-22T05:40:24.753Z,101606.56
2023-01-22T05:42:52.996Z,101608.31
2023-01-22T05:45:21.649Z,101609.13
2023-01-22T05:48:07.339Z,101605.72
2023-01-22T05:50:43.925Z,101608.34
2023-01-22T05:53:12.602Z,101610.97
2023-01-22T05:55:39.629Z,101610.16
2023-01-22T05:58:06.833Z,101610.16
2023-01-22T06:00:35.388Z,101610.16
2023-01-22T06:03:05.449Z,101616.34
2023-01-22T06:05:42.789Z,101617.25
2023-01-22T06:08:11.305Z,101615.56
2023-01-22T06:10:49.025Z,101616.47
2023-01-22T06:13:19.282Z,101611.28
2023-01-22T06:15:50.533Z,101624.50
2023-01-22T06:18:35.687Z,101616.66
2023-01-22T06:21:07.807Z,101627.16
2023-01-22T06:23:35.407Z,101633.31
2023-01-22T06:26:04.260Z,101638.59
2023-01-22T06:28:31.507Z,101640.38
2023-01-22T06:31:08.181Z,101643.88
2023-01-22T06:33:37.806Z,101643.91
2023-01-22T06:36:05.870Z,101642.09
2023-01-22T06:38:33.274Z,101643.00
2023-01-22T06:41:02.928Z,101648.25
2023-01-22T06:43:31.955Z,101647.41
2023-01-22T06:45:59.156Z,101653.47
2023-01-22T06:48:49.993Z,101656.91
2023-01-22T06:51:17.202Z,101656.91
2023-01-22T06:53:44.252Z,101660.38
2023-01-22T06:56:11.718Z,101654.25
2023-01-22T06:58:39.948Z,101647.28
2023-01-22T07:01:07.247Z,101651.63
2023-01-22T07:03:34.530Z,101652.50
2023-01-22T07:06:03.896Z,101646.41
2023-01-22T07:08:33.000Z,101651.63
2023-01-22T07:11:00.296Z,101659.50
2023-01-22T07:13:27.192Z,101656.81
2023-01-22T07:15:54.305Z,101654.13
2023-01-22T07:18:23.988Z,101650.63
2023-01-22T07:20:51.274Z,101661.06
2023-01-22T07:23:18.439Z,101658.38
2023-01-22T07:25:46.272Z,101663.19
2023-01-22T07:28:15.185Z,101667.38
2023-01-22T07:30:47.145Z,101673.41
2023-01-22T07:33:15.205Z,101676.91
2023-01-22T07:35:42.664Z,101684.47
2023-01-22T07:38:10.006Z,101678.03
2023-01-22T07:40:36.951Z,101690.16
2023-01-22T07:43:07.632Z,101691.00
2023-01-22T07:45:35.695Z,101678.13
2023-01-22T07:48:02.835Z,101670.56
2023-01-22T07:50:32.069Z,101678.09
2023-01-22T07:53:00.811Z,101676.56
2023-01-22T07:55:28.041Z,101679.94
2023-01-22T07:58:03.880Z,101675.56
2023-01-22T08:00:31.837Z,101671.88
2023-01-22T08:02:58.820Z,101678.59
2023-01-22T08:05:26.324Z,101672.63
2023-01-22T08:07:53.516Z,101678.56
2023-01-22T08:10:20.831Z,101684.56
2023-01-22T08:12:48.244Z,101694.00
2023-01-22T08:15:15.609Z,101690.19
2023-01-22T08:17:42.816Z,101694.00
2023-01-22T08:20:10.865Z,101696.88
2023-01-22T08:22:38.185Z,101701.59
2023-01-22T08:25:05.739Z,101706.31
2023-01-22T08:27:35.288Z,101714.91
2023-01-22T08:30:03.658Z,101705.00
2023-01-22T08:32:30.847Z,101711.28
2023-01-22T08:34:57.913Z,101704.59
2023-01-22T08:37:25.601Z,101695.81
2023-01-22T08:39:52.617Z,101704.75
2023-01-22T08:42:19.653Z,101713.56
2023-01-22T08:44:46.575Z,101719.59
2023-01-22T08:47:13.535Z,101722.59
2023-01-22T08:49:40.493Z,101718.03
2023-01-22T08:52:07.796Z,101728.72
2023-01-22T08:54:34.722Z,101719.66
2023-01-22T08:57:01.701Z,101717.81
2023-01-22T08:59:30.898Z,101726.00
2023-01-22T09:02:02.024Z,101723.63
2023-01-22T09:04:29.186Z,101722.38
2023-01-22T09:06:56.358Z,101713.84
2023-01-22T09:09:24.133Z,101725.75
2023-01-22T09:11:51.078Z,101725.81
2023-01-22T09:14:18.245Z,101732.69
2023-01-22T09:16:45.301Z,101731.38
2023-01-22T09:19:12.461Z,101729.47
2023-01-22T09:21:39.908Z,101729.72
2023-01-22T09:24:08.064Z,101730.53
2023-01-22T09:26:37.510Z,101739.91
2023-01-22T09:29:06.013Z,101736.72
2023-01-22T09:31:34.839Z,101754.97
2023-01-22T09:34:02.100Z,101748.56
2023-01-22T09:36:29.527Z,101747.31
2023-01-22T09:38:56.836Z,101753.91
2023-01-22T09:41:34.445Z,101757.81
2023-01-22T09:44:05.197Z,101750.97
2023-01-22T09:46:43.667Z,101761.88
2023-01-22T09:49:19.847Z,101758.47
2023-01-22T09:51:58.838Z,101754.72
2023-01-22T09:54:28.038Z,101748.59
2023-01-22T09:56:58.561Z,101755.84
2023-01-22T09:59:31.110Z,101739.88
2023-01-22T10:02:03.879Z,101743.50
2023-01-22T10:04:34.036Z,101738.06
2023-01-22T10:07:03.171Z,101736.56
2023-01-22T10:09:32.531Z,101728.19
2023-01-22T10:12:02.766Z,101746.28
2023-01-22T10:14:30.752Z,101742.88
2023-01-22T10:17:01.698Z,101746.78
2023-01-22T10:19:40.275Z,101744.28
2023-01-22T10:22:13.844Z,101748.63
2023-01-22T10:24:40.921Z,101742.81
2023-01-22T10:27:17.073Z,101740.91
2023-01-22T10:30:17.971Z,101749.72
2023-01-22T10:32:45.089Z,101751.66
2023-01-22T10:35:11.926Z,101753.63
2023-01-22T10:37:49.928Z,101754.91
2023-01-22T10:40:35.114Z,101756.72
2023-01-22T10:43:12.783Z,101768.16
2023-01-22T10:45:51.284Z,101783.25
2023-01-22T10:48:18.751Z,101767.25
2023-01-22T10:50:46.842Z,101756.59
2023-01-22T10:53:20.130Z,101760.69
2023-01-22T10:55:56.380Z,101752.97
2023-01-22T10:58:27.231Z,101753.91
2023-01-22T11:01:01.431Z,101758.41
2023-01-22T11:03:38.577Z,101760.28
2023-01-22T11:06:24.457Z,101757.09
2023-01-22T11:09:00.532Z,101757.19
2023-01-22T11:11:34.940Z,101751.78
2023-01-22T11:14:12.157Z,101746.00
2023-01-22T11:16:40.368Z,101733.34
2023-01-22T11:19:14.683Z,101740.72
2023-01-22T11:21:52.854Z,101742.50
2023-01-22T11:24:37.899Z,101735.34
2023-01-22T11:27:27.072Z,101735.53
2023-01-22T11:30:09.648Z,101740.88
2023-01-22T11:33:13.576Z,101740.56
2023-01-22T11:36:09.879Z,101738.91
2023-01-22T11:38:51.399Z,101724.25
2023-01-22T11:41:38.820Z,101705.66
2023-01-22T11:44:33.107Z,101700.94
2023-01-22T11:47:37.098Z,101695.19
2023-01-22T11:50:30.888Z,101693.38
2023-01-22T11:53:23.239Z,101690.94
2023-01-22T11:56:23.833Z,101689.31
2023-01-22T11:59:15.281Z,101673.09
2023-01-22T12:01:51.103Z,101675.38
2023-01-22T12:04:29.987Z,101675.88
2023-01-22T12:07:09.922Z,101665.41
2023-01-22T12:09:47.831Z,101660.09
2023-01-22T12:12:42.799Z,101656.59
2023-01-22T12:15:32.392Z,101648.75
2023-01-22T12:18:48.810Z,101648.72
2023-01-22T12:21:34.263Z,101640.31
2023-01-22T12:24:19.487Z,101639.63
2023-01-22T12:27:03.940Z,101641.03
2023-01-22T12:29:44.929Z,101633.50
2023-01-22T12:32:15.539Z,101628.63
2023-01-22T12:34:52.803Z,101617.19
2023-01-22T12:37:24.492Z,101621.03
2023-01-22T12:40:29.854Z,101616.47
2023-01-22T12:43:01.682Z,101612.56
2023-01-22T12:45:48.050Z,101617.16
2023-01-22T12:48:35.388Z,101622.09
2023-01-22T12:51:02.377Z,101612.97
2023-01-22T12:53:34.849Z,101605.47
2023-01-22T12:56:10.727Z,101603.25
2023-01-22T12:58:40.453Z,101602.91
2023-01-22T13:01:10.479Z,101604.44
2023-01-22T13:03:39.428Z,101598.31
2023-01-22T13:06:21.707Z,101600.28
2023-01-22T13:08:48.923Z,101593.72
2023-01-22T13:11:51.170Z,101582.19
2023-01-22T13:14:27.562Z,101578.97
2023-01-22T13:17:20.332Z,101577.19
2023-01-22T13:19:50.585Z,101573.47
2023-01-22T13:22:22.025Z,101570.84
2023-01-22T13:24:50.023Z,101571.09
2023-01-22T13:27:33.275Z,101564.59
2023-01-22T13:30:27.978Z,101572.91
2023-01-22T13:33:12.660Z,101576.72
2023-01-22T13:35:46.994Z,101573.97
2023-01-22T13:38:26.540Z,101573.13
2023-01-22T13:41:04.737Z,101572.06
2023-01-22T13:43:33.940Z,101569.22
2023-01-22T13:46:01.142Z,101559.25
2023-01-22T13:48:29.163Z,101572.47
2023-01-22T13:51:02.281Z,101564.59
2023-01-22T13:53:33.211Z,101566.13
2023-01-22T13:56:01.335Z,101568.63
2023-01-22T13:58:49.482Z,101571.09
2023-01-22T14:01:33.103Z,101565.31
2023-01-22T14:04:02.449Z,101563.69
2023-01-22T14:06:29.875Z,101570.25
2023-01-22T14:08:58.756Z,101567.66
2023-01-22T14:11:25.654Z,101565.69
2023-01-22T14:13:54.125Z,101566.34
2023-01-22T14:16:21.279Z,101559.50
2023-01-22T14:18:48.315Z,101548.69
2023-01-22T14:21:15.467Z,101555.00
2023-01-22T14:23:42.896Z,101556.19
2023-01-22T14:26:10.022Z,101562.91
2023-01-22T14:28:37.642Z,101549.94
2023-01-22T14:31:07.974Z,101547.72
2023-01-22T14:33:36.050Z,101552.16
2023-01-22T14:36:03.095Z,101554.72
2023-01-22T14:38:30.325Z,101548.38
2023-01-22T14:40:57.638Z,101541.34
2023-01-22T14:43:24.610Z,101545.69
2023-01-22T14:45:52.001Z,101543.25
2023-01-22T14:48:20.734Z,101530.50
2023-01-22T14:50:48.920Z,101542.59
2023-01-22T14:53:17.250Z,101544.38
2023-01-22T14:55:45.519Z,101537.69
2023-01-22T14:58:12.502Z,101552.59
2023-01-22T15:00:39.966Z,101549.09
2023-01-22T15:03:06.923Z,101542.91
2023-01-22T15:05:35.554Z,101535.09
2023-01-22T15:08:03.116Z,101529.28
2023-01-22T15:10:30.599Z,101532.44
2023-01-22T15:12:59.334Z,101526.56
2023-01-22T15:15:32.035Z,101526.56
2023-01-22T15:17:59.301Z,101531.44
2023-01-22T15:20:26.619Z,101533.28
2023-01-22T15:22:53.894Z,101533.19
2023-01-22T15:25:20.785Z,101533.78
2023-01-22T15:27:47.751Z,101538.19
2023-01-22T15:30:15.181Z,101538.34
2023-01-22T15:32:42.288Z,101535.97
2023-01-22T15:35:09.566Z,101534.66
2023-01-22T15:37:36.613Z,101539.50
2023-01-22T15:40:04.524Z,101528.66
2023-01-22T15:42:32.278Z,101540.28
2023-01-22T15:45:02.722Z,101533.78
2023-01-22T15:47:29.839Z,101541.41
2023-01-22T15:49:56.717Z,101535.31
2023-01-22T15:52:23.656Z,101534.94
2023-01-22T15:54:55.757Z,101536.16
2023-01-22T15:57:23.029Z,101529.00
2023-01-22T15:59:51.640Z,101529.88
2023-01-22T16:02:18.757Z,101537.22
2023-01-22T16:04:45.815Z,101536.44
2023-01-22T16:07:12.805Z,101540.25
2023-01-22T16:09:39.931Z,101543.31
2023-01-22T16:12:07.429Z,101553.63
2023-01-22T16:14:34.524Z,101551.81
2023-01-22T16:17:01.893Z,101548.84
2023-01-22T16:19:29.179Z,101553.91
2023-01-22T16:21:56.186Z,101557.44
2023-01-22T16:24:23.973Z,101551.00
2023-01-22T16:26:50.985Z,101552.44
2023-01-22T16:29:17.950Z,101559.06
2023-01-22T16:31:45.245Z,101563.44
2023-01-22T16:34:15.837Z,101554.41
2023-01-22T16:36:44.351Z,101558.28
2023-01-22T16:39:20.671Z,101560.44
2023-01-22T16:41:50.006Z,101557.19
2023-01-22T16:44:19.864Z,101558.84
2023-01-22T16:46:49.759Z,101557.25
2023-01-22T16:49:22.334Z,101564.47
2023-01-22T16:51:54.525Z,101564.19
2023-01-22T16:54:30.873Z,101569.78
2023-01-22T16:57:00.113Z,101565.78
2023-01-22T16:59:28.159Z,101571.97
2023-01-22T17:01:58.442Z,101568.44
2023-01-22T17:04:26.558Z,101566.38
2023-01-22T17:06:56.085Z,101569.13
2023-01-22T17:09:26.447Z,101573.75
2023-01-22T17:11:58.851Z,101572.22
2023-01-22T17:14:29.945Z,101568.97
2023-01-22T17:16:58.676Z,101577.03
2023-01-22T17:19:26.061Z,101567.38
2023-01-22T17:21:58.084Z,101574.94
2023-01-22T17:24:26.605Z,101568.88
2023-01-22T17:26:53.965Z,101567.22
2023-01-22T17:29:22.276Z,101578.13
2023-01-22T17:31:49.929Z,101574.09
2023-01-22T17:34:17.144Z,101581.78
2023-01-22T17:36:44.511Z,101586.56
2023-01-22T17:39:16.981Z,101577.28
2023-01-22T17:41:47.349Z,101578.47
2023-01-22T17:44:14.522Z,101581.38
2023-01-22T17:46:41.857Z,101584.03
2023-01-22T17:49:12.917Z,101594.06
2023-01-22T17:51:40.195Z,101596.91
2023-01-22T17:54:08.070Z,101595.16
2023-01-22T17:56:46.769Z,101603.22
2023-01-22T17:59:14.213Z,101606.91
2023-01-22T18:01:41.334Z,101608.53
2023-01-22T18:04:11.921Z,101617.38
2023-01-22T18:06:40.877Z,101620.16
2023-01-22T18:09:09.463Z,101615.66
2023-01-22T18:11:37.982Z,101618.31
2023-01-22T18:14:07.702Z,101622.88
2023-01-22T18:16:37.245Z,101621.16
2023-01-22T18:19:07.355Z,101617.56
2023-01-22T18:21:39.189Z,101621.16
2023-01-22T18:24:08.221Z,101621.22
2023-01-22T18:26:36.297Z,101626.63
2023-01-22T18:29:04.577Z,101623.16
2023-01-22T18:31:32.206Z,101627.84
2023-01-22T18:34:02.415Z,101632.41
2023-01-22T18:36:35.271Z,101628.94
2023-01-22T18:39:05.051Z,101630.81
2023-01-22T18:41:32.780Z,101629.25
2023-01-22T18:44:03.553Z,101629.41
2023-01-22T18:46:33.954Z,101626.13
2023-01-22T18:49:04.303Z,101615.66
2023-01-22T18:51:33.025Z,101619.31
2023-01-22T18:54:02.116Z,101612.38
2023-01-22T18:56:29.237Z,101611.66
2023-01-22T18:58:57.636Z,101620.66
2023-01-22T19:01:28.610Z,101619.84
2023-01-22T19:04:01.634Z,101615.78
2023-01-22T19:06:31.442Z,101620.47
2023-01-22T19:09:02.750Z,101616.38
2023-01-22T19:11:35.389Z,101624.81
2023-01-22T19:14:07.318Z,101616.38
2023-01-22T19:16:35.229Z,101623.91
2023-01-22T19:19:07.935Z,101626.00
2023-01-22T19:21:34.850Z,101632.59
2023-01-22T19:24:02.281Z,101635.47
2023-01-22T19:26:34.583Z,101635.91
2023-01-22T19:29:08.442Z,101635.47
2023-01-22T19:31:39.050Z,101633.03
2023-01-22T19:34:07.149Z,101637.63
2023-01-22T19:36:36.596Z,101629.16
2023-01-22T19:39:09.627Z,101637.31
2023-01-22T19:41:37.694Z,101646.34
2023-01-22T19:44:05.157Z,101644.78
2023-01-22T19:46:32.647Z,101638.59
2023-01-22T19:49:00.166Z,101642.06
2023-01-22T19:51:27.543Z,101657.13
2023-01-22T19:53:54.935Z,101667.13
2023-01-22T19:56:27.498Z,101673.31
2023-01-22T19:58:59.413Z,101681.25
2023-01-22T20:01:26.412Z,101677.75
2023-01-22T20:03:55.120Z,101682.06
2023-01-22T20:06:23.474Z,101678.47
2023-01-22T20:08:56.862Z,101687.09
2023-01-22T20:11:24.653Z,101681.66
2023-01-22T20:13:51.880Z,101684.09
2023-01-22T20:16:24.468Z,101690.19
2023-01-22T20:18:55.031Z,101697.28
2023-01-22T20:21:26.729Z,101692.28
2023-01-22T20:23:53.905Z,101690.59
2023-01-22T20:26:21.669Z,101698.72
2023-01-22T20:28:49.845Z,101701.41
2023-01-22T20:31:20.155Z,101719.22
2023-01-22T20:33:47.598Z,101723.31
2023-01-22T20:36:16.292Z,101711.09
2023-01-22T20:38:45.952Z,101714.81
2023-01-22T20:41:14.124Z,101718.53
2023-01-22T20:43:43.122Z,101720.38
2023-01-22T20:46:22.980Z,101721.47
2023-01-22T20:48:52.457Z,101726.19
2023-01-22T20:51:25.919Z,101724.69
2023-01-22T20:53:54.336Z,101719.00
2023-01-22T20:56:23.970Z,101716.25
2023-01-22T20:59:01.220Z,101722.03
2023-01-22T21:01:29.202Z,101725.00
2023-01-22T21:03:58.431Z,101723.63
2023-01-22T21:06:28.092Z,101718.56
2023-01-22T21:08:56.486Z,101726.88
2023-01-22T21:11:24.417Z,101720.88
2023-01-22T21:13:53.105Z,101712.38
2023-01-22T21:16:30.981Z,101712.72
2023-01-22T21:19:00.797Z,101718.25
2023-01-22T21:21:29.394Z,101720.31
2023-01-22T21:23:57.208Z,101715.34
2023-01-22T21:26:27.864Z,101719.03
2023-01-22T21:29:04.114Z,101728.00
2023-01-22T21:31:31.624Z,101721.38
2023-01-22T21:34:04.403Z,101716.34
2023-01-22T21:36:38.966Z,101713.34
2023-01-22T21:39:09.162Z,101714.56
2023-01-22T21:41:37.350Z,101723.56
2023-01-22T21:44:23.470Z,101722.94
2023-01-22T21:46:50.876Z,101707.47
2023-01-22T21:49:22.672Z,101711.19
2023-01-22T21:51:54.157Z,101715.72
2023-01-22T21:54:25.741Z,101713.13
2023-01-22T21:56:53.476Z,101713.06
2023-01-22T21:59:20.480Z,101714.09
2023-01-22T22:01:47.673Z,101711.56
2023-01-22T22:04:15.238Z,101710.84
2023-01-22T22:06:42.670Z,101711.66
2023-01-22T22:09:13.877Z,101710.78
2023-01-22T22:11:40.851Z,101706.44
2023-01-22T22:14:10.080Z,101704.75
2023-01-22T22:16:37.715Z,101710.19
2023-01-22T22:19:04.875Z,101708.63
2023-01-22T22:21:31.911Z,101710.50
2023-01-22T22:23:58.845Z,101706.19
2023-01-22T22:26:26.339Z,101718.63
2023-01-22T22:28:53.558Z,101716.00
2023-01-22T22:31:21.301Z,101709.84
2023-01-22T22:33:51.597Z,101708.88
2023-01-22T22:36:24.619Z,101711.47
2023-01-22T22:38:53.221Z,101714.91
2023-01-22T22:41:23.634Z,101712.34
2023-01-22T22:43:53.729Z,101713.09
2023-01-22T22:46:27.353Z,101727.31
2023-01-22T22:48:56.387Z,101726.63
2023-01-22T22:51:29.246Z,101726.59
2023-01-22T22:53:59.921Z,101723.09
2023-01-22T22:56:28.171Z,101717.81
2023-01-22T22:58:55.899Z,101719.63
2023-01-22T23:01:25.664Z,101723.19
2023-01-22T23:03:53.710Z,101724.91
2023-01-22T23:06:24.126Z,101716.19
2023-01-22T23:08:54.920Z,101712.81
2023-01-22T23:11:25.357Z,101718.91
2023-01-22T23:13:53.035Z,101711.09
2023-01-22T23:16:22.751Z,101715.50
2023-01-22T23:18:51.929Z,101719.03
2023-01-22T23:21:24.107Z,101721.75
2023-01-22T23:23:53.020Z,101725.31
2023-01-22T23:26:28.119Z,101722.63
2023-01-22T23:28:58.021Z,101714.75
2023-01-22T23:31:26.826Z,101720.03
2023-01-22T23:33:55.693Z,101725.31
2023-01-22T23:36:23.805Z,101720.88
2023-01-22T23:38:50.743Z,101718.25
2023-01-22T23:41:19.984Z,101708.72
2023-01-22T23:43:47.658Z,101710.25
2023-01-22T23:46:17.619Z,101711.03
2023-01-22T23:48:45.131Z,101716.19
2023-01-22T23:51:14.703Z,101716.97
2023-01-22T23:53:44.429Z,101717.69
2023-01-22T23:56:12.635Z,101722.22
2023-01-22T23:58:40.760Z,101728.25
